createdAt,value
2022-08-05T00:31:41.685Z,0
2022-08-05T00:35:47.874Z,0
2022-08-05T00:37:09.503Z,0
2022-08-05T00:37:09.585Z,0
2022-08-05T00:37:51.559Z,0
2022-08-05T00:38:28.978Z,0
2022-08-05T00:39:03.302Z,0
2022-08-05T00:40:26.555Z,0
2022-08-05T00:41:04.946Z,0
2022-08-05T00:41:46.993Z,0
2022-08-05T00:48:31.558Z,0
2022-08-05T00:49:14.075Z,0
2022-08-05T00:49:51.936Z,0
2022-08-05T00:50:31.945Z,0
2022-08-05T00:51:50.124Z,0
2022-08-05T00:51:52.885Z,0
2022-08-05T00:52:33.583Z,0
2022-08-05T00:53:44.704Z,0
2022-08-05T00:54:01.578Z,0
2022-08-05T00:54:35.213Z,0
2022-08-05T01:01:24.825Z,0
2022-08-05T01:02:01.168Z,0
2022-08-05T01:02:41.639Z,0
2022-08-05T01:03:22.451Z,0
2022-08-05T01:04:02.768Z,0
2022-08-05T01:04:43.227Z,0
2022-08-05T01:05:24.786Z,0
2022-08-05T01:06:05.541Z,0
2022-08-05T01:06:47.905Z,0
2022-08-05T01:07:31.556Z,0
2022-08-05T01:14:10.734Z,0
2022-08-05T01:14:51.163Z,0
2022-08-05T01:15:35.182Z,0
2022-08-05T01:16:12.370Z,0
2022-08-05T01:16:52.785Z,0
2022-08-05T01:17:40.038Z,0
2022-08-05T01:18:13.706Z,0
2022-08-05T01:18:56.734Z,0
2022-08-05T01:19:57.177Z,0
2022-08-05T01:20:15.301Z,0
2022-08-05T01:25:41.624Z,0
2022-08-05T01:26:21.276Z,0
2022-08-05T01:27:17.999Z,0
2022-08-05T01:27:50.873Z,0
2022-08-05T01:28:22.712Z,0
2022-08-05T01:29:04.225Z,0
2022-08-05T01:29:43.711Z,0
2022-08-05T01:30:34.406Z,0
2022-08-05T01:31:04.781Z,0
2022-08-05T01:31:45.439Z,0
2022-08-05T01:38:30.650Z,0
2022-08-05T01:39:11.149Z,0
2022-08-05T01:39:51.660Z,0
2022-08-05T01:40:32.097Z,0
2022-08-05T01:41:12.677Z,0
2022-08-05T01:41:53.207Z,0
2022-08-05T01:42:33.824Z,0
2022-08-05T01:43:22.184Z,0
2022-08-05T01:43:54.656Z,0
2022-08-05T01:44:35.439Z,0
2022-08-05T01:52:00.980Z,0
2022-08-05T01:52:41.273Z,0
2022-08-05T01:53:54.440Z,0
2022-08-05T01:54:02.274Z,0
2022-08-05T01:54:45.988Z,0
2022-08-05T01:55:23.167Z,0
2022-08-05T01:56:04.372Z,0
2022-08-05T01:58:08.539Z,0
2022-08-05T01:58:09.042Z,0
2022-08-05T01:58:09.152Z,0
2022-08-05T02:05:30.699Z,0
2022-08-05T02:06:12.835Z,0
2022-08-05T02:06:51.870Z,0
2022-08-05T02:07:32.296Z,0
2022-08-05T02:08:12.758Z,0
2022-08-05T02:08:55.180Z,0
2022-08-05T02:09:33.750Z,0
2022-08-05T02:10:14.245Z,0
2022-08-05T02:10:54.809Z,0
2022-08-05T02:11:35.291Z,0
2022-08-05T02:19:00.603Z,0
2022-08-05T02:19:41.379Z,0
2022-08-05T02:20:22.236Z,0
2022-08-05T02:21:01.983Z,0
2022-08-05T02:21:43.190Z,0
2022-08-05T02:22:25.479Z,0
2022-08-05T02:23:03.531Z,0
2022-08-05T02:23:43.991Z,0
2022-08-05T02:24:24.426Z,0
2022-08-05T02:25:05.681Z,0
2022-08-05T02:25:49.664Z,0
2022-08-05T02:32:31.077Z,0
2022-08-05T02:33:10.871Z,0
2022-08-05T02:33:57.585Z,0
2022-08-05T02:34:32.065Z,0
2022-08-05T02:35:13.980Z,0
2022-08-05T02:35:57.570Z,0
2022-08-05T02:36:33.331Z,0
2022-08-05T02:37:13.845Z,0
2022-08-05T02:37:54.289Z,0
2022-08-05T02:38:36.575Z,0
2022-08-05T02:42:01.566Z,0
2022-08-05T02:42:41.730Z,0
2022-08-05T02:46:10.313Z,0
2022-08-05T02:46:53.687Z,0
2022-08-05T02:47:36.488Z,0
2022-08-05T02:48:12.931Z,0
2022-08-05T02:48:54.007Z,0
2022-08-05T02:50:14.573Z,0
2022-08-05T02:50:55.273Z,0
2022-08-05T02:53:00.460Z,0
2022-08-05T02:53:41.089Z,0
2022-08-05T02:58:09.517Z,0
2022-08-05T02:58:30.165Z,0
2022-08-05T02:59:09.468Z,0
2022-08-05T02:59:50.532Z,0
2022-08-05T03:00:30.454Z,0
2022-08-05T03:01:10.948Z,0
2022-08-05T03:01:51.415Z,0
2022-08-05T03:02:31.841Z,0
2022-08-05T03:03:12.337Z,0
2022-08-05T03:04:02.369Z,0
2022-08-05T03:04:33.336Z,0
2022-08-05T03:11:58.684Z,0
2022-08-05T03:12:39.165Z,0
2022-08-05T03:19:13.065Z,0
2022-08-05T03:19:45.493Z,0
2022-08-05T03:20:25.704Z,0
2022-08-05T03:21:06.175Z,0
2022-08-05T03:21:49.047Z,0
2022-08-05T03:22:32.068Z,0
2022-08-05T03:23:07.626Z,0
2022-08-05T03:23:48.124Z,0
2022-08-05T03:24:29.734Z,0
2022-08-05T03:25:11.835Z,0
2022-08-05T03:26:04.143Z,0
2022-08-05T03:32:34.419Z,0
2022-08-05T03:33:14.889Z,0
2022-08-05T03:33:55.355Z,0
2022-08-05T03:34:35.869Z,0
2022-08-05T03:35:16.344Z,0
2022-08-05T03:35:56.862Z,0
2022-08-05T03:36:37.250Z,0
2022-08-05T03:37:17.749Z,0
2022-08-05T03:37:58.275Z,0
2022-08-05T03:38:38.714Z,0
2022-08-05T03:39:20.404Z,0
2022-08-05T03:40:01.359Z,0
2022-08-05T03:46:44.444Z,0
2022-08-05T03:47:25.346Z,0
2022-08-05T03:48:05.424Z,0
2022-08-05T03:48:46.830Z,0
2022-08-05T03:49:30.942Z,0
2022-08-05T03:50:06.925Z,0
2022-08-05T03:50:47.388Z,0
2022-08-05T03:52:36.043Z,0
2022-08-05T03:52:36.374Z,0
2022-08-05T03:54:59.939Z,0
2022-08-05T03:55:07.287Z,0
2022-08-05T04:00:54.581Z,4
2022-08-05T04:01:35.135Z,4
2022-08-05T04:02:17.459Z,4
2022-08-05T04:02:58.270Z,4
2022-08-05T04:03:37.954Z,4
2022-08-05T04:04:17.073Z,4
2022-08-05T04:04:57.548Z,4
2022-08-05T04:05:38.500Z,4
2022-08-05T04:06:18.546Z,0
2022-08-05T04:06:59.029Z,4
2022-08-05T04:07:57.119Z,4
2022-08-05T04:18:20.452Z,8
2022-08-05T04:18:53.874Z,8
2022-08-05T04:19:32.940Z,8
2022-08-05T04:20:13.448Z,8
2022-08-05T04:20:53.937Z,12
2022-08-05T04:22:05.594Z,12
2022-08-05T04:22:14.897Z,12
2022-08-05T04:22:55.398Z,16
2022-08-05T04:29:40.291Z,36
2022-08-05T04:30:20.783Z,36
2022-08-05T04:31:01.464Z,32
2022-08-05T04:31:42.882Z,32
2022-08-05T04:32:30.925Z,32
2022-08-05T04:33:02.747Z,32
2022-08-05T04:33:55.139Z,32
2022-08-05T04:34:33.303Z,32
2022-08-05T04:35:04.709Z,36
2022-08-05T04:41:41.935Z,40
2022-08-05T04:42:21.139Z,40
2022-08-05T04:43:01.638Z,40
2022-08-05T04:43:46.738Z,44
2022-08-05T04:44:24.471Z,48
2022-08-05T04:45:03.129Z,48
2022-08-05T04:45:48.723Z,44
2022-08-05T04:46:28.085Z,48
2022-08-05T04:47:08.714Z,52
2022-08-05T04:47:45.071Z,60
2022-08-05T04:48:27.163Z,68
2022-08-05T04:49:06.056Z,80
2022-08-05T04:50:02.344Z,96
2022-08-05T04:57:11.968Z,348
2022-08-05T04:57:54.175Z,340
2022-08-05T04:58:32.968Z,340
2022-08-05T04:59:13.883Z,308
2022-08-05T04:59:53.993Z,256
2022-08-05T05:00:34.444Z,260
2022-08-05T05:01:15.037Z,292
2022-08-05T05:02:06.616Z,268
2022-08-05T05:02:41.636Z,260
2022-08-05T05:03:16.877Z,272
2022-08-05T05:03:56.917Z,260
2022-08-05T05:07:36.684Z,160
2022-08-05T05:08:26.512Z,144
2022-08-05T05:08:57.381Z,140
2022-08-05T05:09:38.076Z,128
2022-08-05T05:10:18.390Z,108
2022-08-05T05:11:42.096Z,92
2022-08-05T05:12:19.850Z,96
2022-08-05T05:13:00.307Z,92
2022-08-05T05:13:43.425Z,88
2022-08-05T05:14:28.230Z,96
2022-08-05T05:19:47.220Z,92
2022-08-05T05:20:28.193Z,96
2022-08-05T05:21:06.936Z,112
2022-08-05T05:21:47.454Z,120
2022-08-05T05:22:27.975Z,132
2022-08-05T05:23:19.677Z,140
2022-08-05T05:24:02.599Z,148
2022-08-05T05:24:42.962Z,156
2022-08-05T05:25:17.185Z,160
2022-08-05T05:25:50.421Z,168
2022-08-05T05:26:32.878Z,176
2022-08-05T05:35:00.908Z,152
2022-08-05T05:35:42.408Z,144
2022-08-05T05:36:21.974Z,140
2022-08-05T05:37:02.433Z,132
2022-08-05T05:37:59.172Z,140
2022-08-05T05:38:27.388Z,140
2022-08-05T05:39:05.836Z,148
2022-08-05T05:42:40.805Z,188
2022-08-05T05:43:21.938Z,212
2022-08-05T05:44:01.446Z,228
2022-08-05T05:44:43.045Z,228
2022-08-05T05:45:22.479Z,216
2022-08-05T05:46:02.996Z,204
2022-08-05T05:46:43.705Z,204
2022-08-05T05:47:30.147Z,200
2022-08-05T05:50:09.837Z,240
2022-08-05T05:50:50.408Z,256
2022-08-05T05:51:31.001Z,256
2022-08-05T05:52:13.337Z,236
2022-08-05T05:52:51.880Z,224
2022-08-05T05:53:32.549Z,224
2022-08-05T06:33:00.316Z,416
2022-08-05T06:34:06.566Z,428
2022-08-05T06:34:21.220Z,408
2022-08-05T06:35:05.915Z,392
2022-08-05T06:36:03.244Z,404
2022-08-05T06:36:25.813Z,400
2022-08-05T06:37:03.462Z,416
2022-08-05T06:37:57.157Z,332
2022-08-05T06:43:51.783Z,196
2022-08-05T06:44:29.288Z,196
2022-08-05T06:45:09.748Z,204
2022-08-05T06:46:03.533Z,196
2022-08-05T06:46:30.825Z,176
2022-08-05T06:47:30.141Z,172
2022-08-05T06:48:12.414Z,168
2022-08-05T06:48:47.471Z,180
2022-08-05T06:49:13.000Z,180
2022-08-05T06:50:00.006Z,184
2022-08-05T06:50:34.154Z,196
2022-08-05T06:55:59.352Z,356
2022-08-05T06:56:39.882Z,384
2022-08-05T06:57:57.087Z,388
2022-08-05T06:58:03.594Z,352
2022-08-05T06:58:41.819Z,364
2022-08-05T06:59:22.120Z,392
2022-08-05T07:00:02.643Z,432
2022-08-05T07:00:43.253Z,432
2022-08-05T07:01:23.782Z,440
2022-08-05T07:07:35.699Z,444
2022-08-05T07:08:11.079Z,384
2022-08-05T07:08:51.992Z,400
2022-08-05T07:09:32.276Z,408
2022-08-05T07:10:10.978Z,448
2022-08-05T07:10:52.706Z,468
2022-08-05T07:11:32.022Z,400
2022-08-05T07:12:12.742Z,348
2022-08-05T07:12:54.037Z,324
2022-08-05T07:17:57.617Z,260
2022-08-05T07:17:57.929Z,232
2022-08-05T07:18:27.398Z,208
2022-08-05T07:19:00.505Z,208
2022-08-05T07:20:38.999Z,204
2022-08-05T07:21:04.629Z,200
2022-08-05T07:21:59.729Z,192
2022-08-05T07:22:27.937Z,184
2022-08-05T07:27:58.912Z,168
2022-08-05T07:29:10.175Z,196
2022-08-05T07:30:23.060Z,184
2022-08-05T07:30:32.325Z,176
2022-08-05T07:31:11.925Z,180
2022-08-05T07:31:54.360Z,192
2022-08-05T07:32:33.553Z,228
2022-08-05T07:33:15.882Z,256
2022-08-05T07:38:42.972Z,220
2022-08-05T07:39:24.320Z,228
2022-08-05T07:40:04.912Z,224
2022-08-05T07:40:44.446Z,232
2022-08-05T07:42:09.688Z,228
2022-08-05T07:42:09.806Z,220
2022-08-05T07:42:42.452Z,208
2022-08-05T07:43:22.892Z,204
2022-08-05T07:44:03.534Z,204
2022-08-05T07:44:44.149Z,224
2022-08-05T07:50:48.979Z,300
2022-08-05T07:51:36.511Z,292
2022-08-05T07:52:10.429Z,288
2022-08-05T07:52:51.035Z,280
2022-08-05T07:53:36.782Z,288
2022-08-05T07:54:52.674Z,244
2022-08-05T07:55:44.682Z,224
2022-08-05T07:56:39.506Z,196
2022-08-05T08:02:18.862Z,324
2022-08-05T08:03:14.447Z,300
2022-08-05T08:03:44.184Z,324
2022-08-05T08:04:23.037Z,292
2022-08-05T08:05:00.904Z,308
2022-08-05T08:05:44.676Z,308
2022-08-05T08:06:22.013Z,312
2022-08-05T08:07:04.043Z,300
2022-08-05T08:07:58.850Z,280
2022-08-05T08:08:23.893Z,316
2022-08-05T08:15:09.590Z,316
2022-08-05T08:16:34.118Z,284
2022-08-05T08:16:34.191Z,272
2022-08-05T08:17:10.690Z,316
2022-08-05T08:17:52.826Z,300
2022-08-05T08:18:31.739Z,324
2022-08-05T08:19:38.052Z,332
2022-08-05T08:20:00.623Z,324
2022-08-05T08:20:43.172Z,284
2022-08-05T08:21:15.878Z,280
2022-08-05T08:26:39.067Z,356
2022-08-05T08:27:19.601Z,336
2022-08-05T08:28:00.156Z,328
2022-08-05T08:31:15.141Z,364
2022-08-05T08:31:54.905Z,392
2022-08-05T08:32:35.479Z,320
2022-08-05T08:33:17.385Z,336
2022-08-05T08:33:57.942Z,364
2022-08-05T08:34:38.442Z,388
2022-08-05T08:40:06.129Z,448
2022-08-05T08:40:50.599Z,492
2022-08-05T08:41:51.587Z,496
2022-08-05T08:45:34.258Z,464
2022-08-05T08:46:15.536Z,456
2022-08-05T08:46:55.488Z,460
2022-08-05T08:47:48.184Z,492
2022-08-05T08:48:23.982Z,528
2022-08-05T08:49:05.168Z,560
2022-08-05T08:50:08.140Z,544
2022-08-05T08:50:30.062Z,536
2022-08-05T08:56:03.297Z,460
2022-08-05T08:56:27.048Z,404
2022-08-05T08:57:04.752Z,372
2022-08-05T08:57:48.574Z,344
2022-08-05T08:58:26.202Z,336
2022-08-05T09:01:57.170Z,392
2022-08-05T09:02:34.811Z,424
2022-08-05T09:03:16.050Z,420
2022-08-05T09:03:57.641Z,424
2022-08-05T09:04:36.663Z,492
2022-08-05T09:05:18.403Z,580
2022-08-05T09:06:08.356Z,592
2022-08-05T09:06:38.103Z,588
2022-08-05T09:07:19.504Z,660
2022-08-05T09:13:24.026Z,480
2022-08-05T09:14:10.409Z,464
2022-08-05T09:14:55.071Z,504
2022-08-05T09:15:25.599Z,540
2022-08-05T09:16:06.336Z,532
2022-08-05T09:16:48.873Z,452
2022-08-05T09:17:40.321Z,460
2022-08-05T09:18:08.764Z,508
2022-08-05T09:18:49.314Z,448
2022-08-05T09:23:37.402Z,636
2022-08-05T09:26:00.393Z,568
2022-08-05T09:28:57.747Z,712
2022-08-05T09:29:44.701Z,776
2022-08-05T09:30:23.204Z,700
2022-08-05T09:31:00.042Z,728
2022-08-05T09:32:39.500Z,740
2022-08-05T09:33:02.581Z,656
2022-08-05T09:33:43.107Z,676
2022-08-05T09:34:26.075Z,852
2022-08-05T09:35:04.302Z,988
2022-08-05T09:35:44.811Z,972
2022-08-05T09:36:27.548Z,1084
2022-08-05T09:37:05.855Z,1004
2022-08-05T09:41:56.316Z,812
2022-08-05T09:42:32.273Z,1064
2022-08-05T09:43:12.713Z,956
2022-08-05T09:43:53.034Z,684
2022-08-05T09:44:36.521Z,636
2022-08-05T09:51:14.725Z,728
2022-08-05T09:51:53.626Z,740
2022-08-05T09:52:34.174Z,848
2022-08-05T09:53:23.274Z,860
2022-08-05T09:53:59.033Z,796
2022-08-05T09:54:35.761Z,792
2022-08-05T09:55:55.708Z,756
2022-08-05T09:57:44.489Z,872
2022-08-05T09:58:24.772Z,912
2022-08-05T09:59:05.258Z,880
2022-08-05T09:59:45.797Z,784
2022-08-05T10:05:10.651Z,1116
2022-08-05T10:05:51.181Z,1096
2022-08-05T10:06:31.747Z,1112
2022-08-05T10:07:19.784Z,1080
2022-08-05T10:08:11.336Z,1056
2022-08-05T10:08:37.111Z,1060
2022-08-05T10:09:22.603Z,1124
2022-08-05T10:10:04.487Z,1068
2022-08-05T10:16:41.942Z,968
2022-08-05T10:17:38.146Z,996
2022-08-05T10:18:01.465Z,1116
2022-08-05T10:18:41.838Z,1200
2022-08-05T10:19:23.411Z,1224
2022-08-05T10:20:09.734Z,1372
2022-08-05T10:20:44.131Z,1568
2022-08-05T10:21:23.860Z,1736
2022-08-05T10:22:04.334Z,2220
2022-08-05T10:22:48.828Z,2300
2022-08-05T10:23:34.900Z,2292
2022-08-05T10:31:20.512Z,1876
2022-08-05T10:32:49.791Z,1568
2022-08-05T10:32:50.078Z,1844
2022-08-05T10:32:50.360Z,1768
2022-08-05T10:33:00.065Z,1828
2022-08-05T10:33:34.346Z,1812
2022-08-05T10:34:13.432Z,1448
2022-08-05T10:34:53.923Z,1500
2022-08-05T10:35:40.489Z,1612
2022-08-05T10:36:14.889Z,1528
2022-08-05T10:36:55.498Z,1736
2022-08-05T10:43:40.496Z,1548
2022-08-05T10:44:21.026Z,1520
2022-08-05T10:45:01.543Z,1432
2022-08-05T10:45:42.489Z,1384
2022-08-05T10:46:23.689Z,1720
2022-08-05T10:47:03.015Z,1508
2022-08-05T10:47:47.086Z,1504
2022-08-05T10:48:30.447Z,1576
2022-08-05T10:49:09.566Z,1708
2022-08-05T10:49:48.906Z,1672
2022-08-05T10:57:10.621Z,2092
2022-08-05T10:57:51.191Z,1980
2022-08-05T10:58:36.111Z,2100
2022-08-05T11:00:01.486Z,2004
2022-08-05T11:00:02.325Z,1980
2022-08-05T11:00:33.124Z,1948
2022-08-05T11:01:13.644Z,1812
2022-08-05T11:02:04.856Z,1608
2022-08-05T11:02:37.785Z,1744
2022-08-05T11:03:23.927Z,1840
2022-08-05T11:10:03.919Z,1900
2022-08-05T11:10:50.109Z,1900
2022-08-05T11:11:21.273Z,1904
2022-08-05T11:12:01.804Z,1936
2022-08-05T11:12:42.306Z,2004
2022-08-05T11:13:23.398Z,2096
2022-08-05T11:14:03.915Z,2236
2022-08-05T11:15:01.071Z,2416
2022-08-05T11:15:59.607Z,2452
2022-08-05T11:16:05.319Z,2472
2022-08-05T11:23:33.823Z,2140
2022-08-05T11:24:14.630Z,2316
2022-08-05T11:25:01.655Z,2408
2022-08-05T11:26:03.746Z,2652
2022-08-05T11:27:51.632Z,2544
2022-08-05T11:28:29.529Z,2556
2022-08-05T11:29:12.399Z,2528
2022-08-05T11:29:50.483Z,2448
2022-08-05T11:30:31.709Z,2444
2022-08-05T11:31:12.180Z,2300
2022-08-05T11:38:26.938Z,2152
2022-08-05T11:38:45.314Z,2240
2022-08-05T11:39:18.632Z,2232
2022-08-05T11:40:00.876Z,1896
2022-08-05T11:40:39.606Z,1808
2022-08-05T11:41:36.977Z,1860
2022-08-05T11:42:02.171Z,1924
2022-08-05T11:43:21.574Z,2104
2022-08-05T11:44:05.267Z,2076
2022-08-05T11:44:53.490Z,1752
2022-08-05T11:50:47.565Z,1936
2022-08-05T11:53:02.913Z,1828
2022-08-05T11:53:43.090Z,1732
2022-08-05T11:54:23.653Z,1724
2022-08-05T12:32:33.753Z,1936
2022-08-05T12:34:46.607Z,2008
2022-08-05T12:35:37.097Z,1892
2022-08-05T12:36:08.305Z,1904
2022-08-05T12:36:48.132Z,1752
2022-08-05T12:37:29.930Z,2040
2022-08-05T12:38:10.249Z,1972
2022-08-05T12:38:49.699Z,1944
2022-08-05T12:39:34.416Z,1716
2022-08-05T12:40:11.278Z,1744
2022-08-05T12:40:51.359Z,1564
2022-08-05T12:47:36.353Z,1788
2022-08-05T12:48:17.862Z,1836
2022-08-05T12:48:57.409Z,1724
2022-08-05T12:50:02.727Z,1624
2022-08-05T12:50:19.846Z,1460
2022-08-05T12:51:00.565Z,1544
2022-08-05T12:52:11.471Z,2028
2022-08-05T12:59:09.370Z,2048
2022-08-05T13:01:58.741Z,1664
2022-08-05T13:01:59.141Z,1824
2022-08-05T13:01:59.202Z,1864
2022-08-05T13:02:30.438Z,1812
2022-08-05T13:03:12.159Z,1824
2022-08-05T13:03:51.511Z,1632
2022-08-05T13:10:36.247Z,1492
2022-08-05T13:11:16.750Z,1508
2022-08-05T13:12:02.455Z,1556
2022-08-05T13:12:42.642Z,1564
2022-08-05T13:14:04.334Z,1596
2022-08-05T13:14:04.462Z,1596
2022-08-05T13:14:39.211Z,1624
2022-08-05T13:15:24.240Z,1644
2022-08-05T13:16:00.217Z,1620
2022-08-05T13:16:40.766Z,1692
2022-08-05T13:17:25.152Z,1768
2022-08-05T13:24:06.221Z,1860
2022-08-05T13:24:57.818Z,1776
2022-08-05T13:25:51.369Z,1712
2022-08-05T13:26:07.892Z,1600
2022-08-05T13:26:48.724Z,1500
2022-08-05T13:27:35.616Z,1404
2022-08-05T13:28:10.538Z,1396
2022-08-05T13:28:52.416Z,1524
2022-08-05T13:29:37.408Z,1576
2022-08-05T13:36:16.442Z,1616
2022-08-05T13:36:56.930Z,1620
2022-08-05T13:37:37.407Z,1620
2022-08-05T13:38:20.620Z,1512
2022-08-05T13:38:58.457Z,1500
2022-08-05T13:40:13.290Z,1556
2022-08-05T13:40:35.829Z,1668
2022-08-05T13:41:00.398Z,1632
2022-08-05T13:41:40.685Z,1620
2022-08-05T13:42:21.197Z,1580
2022-08-05T13:49:09.960Z,1684
2022-08-05T13:49:46.672Z,1648
2022-08-05T13:50:27.102Z,1612
2022-08-05T13:51:07.598Z,1624
2022-08-05T13:51:48.101Z,1652
2022-08-05T13:52:29.300Z,1712
2022-08-05T13:53:15.702Z,1724
2022-08-05T13:53:49.666Z,1628
2022-08-05T13:54:30.226Z,1556
2022-08-05T13:55:51.276Z,1464
2022-08-05T14:02:36.445Z,980
2022-08-05T14:03:17.006Z,952
2022-08-05T14:03:57.455Z,956
2022-08-05T14:04:38.029Z,952
2022-08-05T14:05:19.485Z,928
2022-08-05T14:06:05.030Z,892
2022-08-05T14:06:39.759Z,884
2022-08-05T14:07:25.264Z,852
2022-08-05T14:12:17.326Z,560
2022-08-05T14:12:49.504Z,540
2022-08-05T14:13:30.023Z,512
2022-08-05T14:14:10.557Z,496
2022-08-05T14:14:51.885Z,484
2022-08-05T14:20:17.587Z,1088
2022-08-05T14:20:58.628Z,1208
2022-08-05T14:22:07.619Z,1240
2022-08-05T14:22:19.691Z,1200
2022-08-05T14:23:00.186Z,1160
2022-08-05T14:23:40.742Z,1156
2022-08-05T14:24:21.352Z,1200
2022-08-05T14:27:49.692Z,1672
2022-08-05T14:28:30.485Z,1496
2022-08-05T14:29:15.727Z,1492
2022-08-05T14:35:20.592Z,1096
2022-08-05T14:35:59.481Z,1092
2022-08-05T14:36:40.461Z,1096
2022-08-05T14:37:20.930Z,1128
2022-08-05T14:43:39.179Z,1172
2022-08-05T14:44:09.885Z,1188
2022-08-05T14:44:47.420Z,1216
2022-08-05T14:46:08.360Z,1232
2022-08-05T14:46:48.860Z,1264
2022-08-05T14:48:02.418Z,1272
2022-08-05T14:48:09.859Z,1288
2022-08-05T14:48:50.390Z,1300
2022-08-05T14:49:56.198Z,1308
2022-08-05T14:54:56.495Z,1284
2022-08-05T14:55:38.898Z,1312
2022-08-05T14:56:22.609Z,1304
2022-08-05T14:56:57.969Z,1284
2022-08-05T14:57:54.129Z,1244
2022-08-05T14:58:19.017Z,1180
2022-08-05T14:58:59.568Z,1136
2022-08-05T14:59:40.000Z,1120
2022-08-05T15:00:20.512Z,1112
2022-08-05T15:01:01.501Z,1144
2022-08-05T15:01:47.356Z,1192
2022-08-05T15:08:04.691Z,1112
2022-08-05T15:08:38.215Z,1076
2022-08-05T15:09:07.147Z,1056
2022-08-05T15:09:52.798Z,1048
2022-08-05T15:10:28.723Z,1052
2022-08-05T15:11:08.702Z,1072
2022-08-05T15:11:52.209Z,1084
2022-08-05T15:12:41.017Z,1092
2022-08-05T15:13:10.526Z,1084
2022-08-05T15:13:50.661Z,1056
2022-08-05T15:14:34.143Z,1028
2022-08-05T15:19:56.296Z,1048
2022-08-05T15:20:36.760Z,1116
2022-08-05T15:21:20.898Z,1156
2022-08-05T15:21:57.974Z,1228
2022-08-05T15:22:38.361Z,1236
2022-08-05T15:23:18.813Z,1392
2022-08-05T15:23:59.371Z,1312
2022-08-05T15:24:39.893Z,1296
2022-08-05T15:28:14.616Z,1364
2022-08-05T15:28:56.016Z,1384
2022-08-05T15:29:41.766Z,1380
2022-08-05T15:30:17.129Z,1412
2022-08-05T15:30:57.644Z,1336
2022-08-05T15:31:38.203Z,1292
2022-08-05T15:32:19.213Z,1244
2022-08-05T15:38:33.583Z,1080
2022-08-05T15:40:42.014Z,1088
2022-08-05T15:42:50.168Z,1072
2022-08-05T15:43:07.982Z,1056
2022-08-05T15:43:45.287Z,1052
2022-08-05T15:44:19.614Z,1052
2022-08-05T15:45:00.116Z,1068
2022-08-05T15:45:40.762Z,1060
2022-08-05T15:47:01.674Z,1064
2022-08-05T15:47:42.142Z,1100
2022-08-05T15:48:22.688Z,1120
2022-08-05T15:54:35.227Z,1168
2022-08-05T15:55:08.133Z,1176
2022-08-05T15:56:01.712Z,1064
2022-08-05T15:56:30.666Z,1068
2022-08-05T15:57:10.858Z,1076
2022-08-05T15:57:51.361Z,1080
2022-08-05T15:58:35.611Z,1084
2022-08-05T15:59:20.108Z,1088
2022-08-05T15:59:56.486Z,1068
2022-08-05T16:06:37.892Z,944
2022-08-05T16:07:18.384Z,940
2022-08-05T16:07:58.933Z,936
2022-08-05T16:08:39.902Z,932
2022-08-05T16:09:22.156Z,924
2022-08-05T16:10:00.382Z,908
2022-08-05T16:10:40.921Z,872
2022-08-05T16:11:39.821Z,852
2022-08-05T16:12:42.502Z,884
2022-08-05T16:20:10.962Z,924
2022-08-05T16:20:48.419Z,916
2022-08-05T16:21:59.136Z,932
2022-08-05T16:22:10.623Z,904
2022-08-05T16:22:50.031Z,896
2022-08-05T16:23:33.086Z,884
2022-08-05T16:24:12.678Z,872
2022-08-05T16:24:52.366Z,864
2022-08-05T16:25:33.793Z,860
2022-08-05T16:30:57.774Z,844
2022-08-05T16:31:56.529Z,856
2022-08-05T16:32:21.629Z,872
2022-08-05T16:32:59.938Z,876
2022-08-05T16:33:41.477Z,868
2022-08-05T16:34:20.934Z,860
2022-08-05T16:35:01.522Z,872
2022-08-05T16:35:43.046Z,876
2022-08-05T16:36:23.769Z,880
2022-08-05T16:39:08.106Z,844
2022-08-05T16:40:05.438Z,828
2022-08-05T16:40:29.683Z,812
2022-08-05T16:41:29.803Z,800
2022-08-05T16:42:13.313Z,796
2022-08-05T16:42:30.957Z,792
2022-08-05T16:43:11.316Z,788
2022-08-05T16:43:55.541Z,784
2022-08-05T16:47:24.869Z,740
2022-08-05T16:48:02.892Z,712
2022-08-05T16:48:41.719Z,688
2022-08-05T16:49:22.192Z,668
2022-08-05T16:50:02.844Z,648
2022-08-05T16:50:43.396Z,648
2022-08-05T16:52:04.372Z,656
2022-08-05T16:52:46.042Z,660
2022-08-05T16:53:31.968Z,648
2022-08-05T16:59:30.569Z,644
2022-08-05T17:00:10.731Z,636
2022-08-05T17:00:51.185Z,640
2022-08-05T17:01:53.430Z,648
2022-08-05T17:02:12.328Z,644
2022-08-05T17:02:52.794Z,632
2022-08-05T17:03:33.903Z,620
2022-08-05T17:04:15.009Z,616
2022-08-05T17:04:54.768Z,608
2022-08-05T17:05:37.086Z,600
2022-08-05T17:12:22.425Z,540
2022-08-05T17:13:00.930Z,540
2022-08-05T17:13:42.237Z,540
2022-08-05T17:14:22.114Z,532
2022-08-05T17:15:02.399Z,524
2022-08-05T17:15:48.136Z,512
2022-08-05T17:16:33.773Z,504
2022-08-05T17:17:03.945Z,500
2022-08-05T17:17:44.399Z,496
2022-08-05T17:18:24.973Z,488
2022-08-05T17:19:07.243Z,476
2022-08-05T17:25:50.525Z,368
2022-08-05T17:26:31.054Z,364
2022-08-05T17:27:11.609Z,360
2022-08-05T17:27:52.154Z,360
2022-08-05T17:28:32.631Z,348
2022-08-05T17:29:13.136Z,344
2022-08-05T17:29:59.673Z,332
2022-08-05T17:30:34.036Z,324
2022-08-05T17:31:24.214Z,308
2022-08-05T17:31:57.485Z,304
2022-08-05T17:38:04.792Z,384
2022-08-05T17:38:40.922Z,388
2022-08-05T17:39:23.613Z,392
2022-08-05T17:40:01.917Z,396
2022-08-05T17:40:42.360Z,408
2022-08-05T17:42:17.051Z,444
2022-08-05T17:42:17.190Z,424
2022-08-05T17:42:46.519Z,452
2022-08-05T17:43:26.363Z,456
2022-08-05T17:44:04.953Z,456
2022-08-05T17:44:49.958Z,452
2022-08-05T17:50:50.092Z,440
2022-08-05T17:51:30.636Z,440
2022-08-05T17:52:15.925Z,428
2022-08-05T17:52:53.480Z,420
2022-08-05T17:53:32.979Z,404
2022-08-05T18:34:40.686Z,208
2022-08-05T18:35:17.830Z,208
2022-08-05T18:36:01.452Z,204
2022-08-05T18:36:38.819Z,200
2022-08-05T18:37:33.830Z,196
2022-08-05T18:37:59.825Z,192
2022-08-05T18:38:40.290Z,188
2022-08-05T18:39:22.538Z,180
2022-08-05T18:40:31.915Z,176
2022-08-05T18:41:51.162Z,176
2022-08-05T18:41:52.898Z,172
2022-08-05T18:42:04.825Z,172
2022-08-05T18:48:47.600Z,136
2022-08-05T18:49:30.602Z,132
2022-08-05T18:50:10.538Z,128
2022-08-05T18:50:49.023Z,120
2022-08-05T18:52:03.556Z,116
2022-08-05T18:52:51.695Z,116
2022-08-05T18:53:30.923Z,108
2022-08-05T18:54:11.418Z,108
2022-08-05T18:54:51.875Z,104
2022-08-05T18:55:32.346Z,96
2022-08-05T19:02:57.801Z,64
2022-08-05T19:03:53.616Z,60
2022-08-05T19:04:24.243Z,60
2022-08-05T19:05:01.809Z,56
2022-08-05T19:06:06.953Z,56
2022-08-05T19:06:22.234Z,52
2022-08-05T19:07:00.614Z,52
2022-08-05T19:07:42.404Z,48
2022-08-05T19:08:21.835Z,44
2022-08-05T19:09:02.073Z,40
2022-08-05T19:09:42.549Z,44
2022-08-05T19:16:29.305Z,20
2022-08-05T19:17:07.894Z,20
2022-08-05T19:17:58.325Z,20
2022-08-05T19:18:28.821Z,16
2022-08-05T19:19:09.372Z,16
2022-08-05T19:19:49.797Z,12
2022-08-05T19:20:30.264Z,12
2022-08-05T19:21:10.800Z,12
2022-08-05T19:21:51.595Z,12
2022-08-05T19:22:31.931Z,8
2022-08-05T19:23:22.335Z,12
2022-08-05T19:30:37.544Z,4
2022-08-05T19:31:19.590Z,4
2022-08-05T19:31:58.477Z,4
2022-08-05T19:32:39.034Z,4
2022-08-05T19:33:34.142Z,0
2022-08-05T19:34:00.005Z,0
2022-08-05T19:34:40.635Z,0
2022-08-05T19:36:02.110Z,4
2022-08-05T19:36:42.516Z,0
2022-08-05T19:37:22.396Z,0
2022-08-05T19:44:47.637Z,0
2022-08-05T19:45:28.132Z,0
2022-08-05T19:46:16.546Z,0
2022-08-05T19:46:50.232Z,0
2022-08-05T19:47:29.582Z,0
2022-08-05T19:48:14.207Z,0
2022-08-05T19:48:50.611Z,0
2022-08-05T19:49:31.005Z,0
2022-08-05T19:50:11.869Z,0
2022-08-05T19:50:51.996Z,0
2022-08-05T19:52:04.399Z,0
2022-08-05T19:58:24.653Z,0
2022-08-05T19:58:57.859Z,0
2022-08-05T19:59:51.322Z,0
2022-08-05T20:00:18.854Z,0
2022-08-05T20:00:59.377Z,0
2022-08-05T20:01:39.960Z,0
2022-08-05T20:02:20.390Z,0
2022-08-05T20:03:00.877Z,0
2022-08-05T20:03:42.166Z,0
2022-08-05T20:04:21.896Z,0
2022-08-05T20:05:04.753Z,0
2022-08-05T20:12:28.092Z,0
2022-08-05T20:13:08.302Z,0
2022-08-05T20:13:54.635Z,0
2022-08-05T20:14:29.287Z,0
2022-08-05T20:15:09.783Z,0
2022-08-05T20:15:52.731Z,0
2022-08-05T20:16:30.748Z,0
2022-08-05T20:17:12.461Z,0
2022-08-05T20:17:51.673Z,0